Time;durP1;ratioP1;P1;durP2;ratioP2;P2;SDS_P1;SDS_P2;PMS_P1;PMS_P2;Temp;Humidity;BMP_temperature;BMP_pressure;BME280_temperature;BME280_humidity;BME280_pressure;Samples;Min_cycle;Max_cycle;Signal;HPM_P1;HPM_P2
2023/03/31 00:00:52;;;;;;;61.90;46.27;;;;;;;9.02;100.00;100064.84;5013638;28;20437;-44
2023/03/31 00:03:22;;;;;;;62.70;47.63;;;;;;;9.06;100.00;100073.25;5013482;28;20449;-45
2023/03/31 00:05:56;;;;;;;72.80;50.70;;;;;;;9.05;100.00;100064.44;5008537;28;21307;-48
2023/03/31 00:08:28;;;;;;;81.60;47.67;;;;;;;9.08;100.00;100066.69;5013725;28;20524;-51
2023/03/31 00:10:59;;;;;;;68.23;49.50;;;;;;;9.08;100.00;100057.94;5013540;28;20500;-45
2023/03/31 00:13:29;;;;;;;59.30;48.90;;;;;;;9.09;100.00;100063.03;5013425;28;20410;-45
2023/03/31 00:15:58;;;;;;;71.77;48.10;;;;;;;9.11;100.00;100068.97;5012865;28;20473;-44
2023/03/31 00:18:26;;;;;;;82.17;47.33;;;;;;;9.09;100.00;100063.03;5013435;28;20483;-44
2023/03/31 00:20:56;;;;;;;81.27;48.00;;;;;;;9.11;100.00;100070.81;5013415;28;20437;-45
2023/03/31 00:23:27;;;;;;;58.10;45.60;;;;;;;9.12;100.00;100062.63;5013107;28;20425;-47
2023/03/31 00:25:55;;;;;;;55.50;46.13;;;;;;;9.15;100.00;100056.91;5012561;28;20477;-44
2023/03/31 00:28:23;;;;;;;57.30;45.30;;;;;;;9.14;100.00;100054.47;5013304;28;20433;-43
2023/03/31 00:30:52;;;;;;;68.00;47.00;;;;;;;9.15;100.00;100056.06;5013316;28;20459;-48
2023/03/31 00:33:20;;;;;;;65.10;46.80;;;;;;;9.13;100.00;100058.94;5012916;28;20445;-46
2023/03/31 00:35:51;;;;;;;53.43;45.07;;;;;;;9.14;100.00;100055.25;5012637;28;20476;-44
2023/03/31 00:38:20;;;;;;;68.37;45.83;;;;;;;9.16;100.00;100047.91;5012919;28;20493;-44
2023/03/31 00:40:48;;;;;;;69.27;48.03;;;;;;;9.15;100.00;100050.75;5013121;28;20429;-48
2023/03/31 00:43:31;;;;;;;64.50;46.07;;;;;;;9.14;100.00;100049.94;5012631;28;20946;-44
2023/03/31 00:46:07;;;;;;;59.50;45.47;;;;;;;9.19;100.00;100052.00;5012451;28;20479;-44
2023/03/31 00:48:37;;;;;;;66.13;47.30;;;;;;;9.20;100.00;100049.13;5012860;28;20934;-46
2023/03/31 00:51:07;;;;;;;53.40;45.60;;;;;;;9.20;100.00;100041.13;5012496;28;20791;-45
2023/03/31 00:53:36;;;;;;;62.40;50.57;;;;;;;9.21;100.00;100045.44;5012973;28;20436;-44
2023/03/31 00:56:09;;;;;;;68.23;47.87;;;;;;;9.21;100.00;100037.47;5012064;28;20463;-44
2023/03/31 00:58:42;;;;;;;60.50;47.93;;;;;;;9.23;100.00;100034.59;5012618;28;20954;-44
2023/03/31 01:01:15;;;;;;;67.97;47.30;;;;;;;9.26;100.00;100032.34;5012372;28;20433;-43
2023/03/31 01:03:45;;;;;;;52.10;46.57;;;;;;;9.27;100.00;100033.97;5012614;28;20440;-45
2023/03/31 01:06:15;;;;;;;59.30;48.40;;;;;;;9.28;100.00;100030.31;5011890;28;20492;-44
2023/03/31 01:08:44;;;;;;;59.13;45.73;;;;;;;9.30;100.00;100025.59;5012385;28;20433;-44
2023/03/31 01:11:15;;;;;;;54.20;48.40;;;;;;;9.35;100.00;100020.47;5012230;28;20800;-43
2023/03/31 01:13:44;;;;;;;57.63;47.73;;;;;;;9.35;100.00;100012.47;5012135;28;20429;-47
2023/03/31 01:16:13;;;;;;;56.20;47.33;;;;;;;9.37;100.00;100014.94;5014061;28;20854;-46
2023/03/31 01:18:45;;;;;;;57.50;46.53;;;;;;;9.37;100.00;100017.59;5029690;28;20459;-47
2023/03/31 01:21:46;;;;;;;55.37;46.77;;;;;;;9.42;100.00;100005.31;5031896;28;20779;-46
2023/03/31 01:25:00;;;;;;;53.50;47.77;;;;;;;9.44;100.00;99991.78;5025046;28;20435;-48
2023/03/31 01:27:49;;;;;;;64.87;49.20;;;;;;;9.48;100.00;99998.34;5031659;28;20471;-48
2023/03/31 01:30:37;;;;;;;56.20;50.10;;;;;;;9.50;100.00;100003.47;5031771;28;20420;-47
2023/03/31 01:33:38;;;;;;;61.53;49.03;;;;;;;9.52;100.00;100006.75;5031739;28;20429;-46
2023/03/31 01:36:22;;;;;;;56.43;50.43;;;;;;;9.51;100.00;99992.59;5029687;28;20479;-47
2023/03/31 01:39:21;;;;;;;62.67;54.50;;;;;;;9.54;100.00;99988.72;5031530;28;20427;-46
2023/03/31 01:41:58;;;;;;;56.50;51.13;;;;;;;9.54;100.00;99991.38;5031604;28;20435;-46
2023/03/31 01:44:33;;;;;;;57.37;52.10;;;;;;;9.57;100.00;99985.63;5031693;28;20439;-45
2023/03/31 01:47:04;;;;;;;60.37;54.77;;;;;;;9.58;100.00;99981.94;5031047;28;20467;-45
2023/03/31 01:49:41;;;;;;;58.50;52.43;;;;;;;9.59;100.00;99978.28;5031820;28;20432;-45
2023/03/31 01:52:19;;;;;;;57.13;50.90;;;;;;;9.59;100.00;99972.94;5031510;28;20459;-45
2023/03/31 01:54:50;;;;;;;60.83;54.30;;;;;;;9.60;100.00;99971.91;5031641;28;20794;-45
2023/03/31 01:57:27;;;;;;;59.27;53.13;;;;;;;9.61;100.00;99962.91;5031192;28;20535;-46
2023/03/31 02:00:04;;;;;;;63.03;50.57;;;;;;;9.59;100.00;99962.31;5031655;28;20553;-49
2023/03/31 02:02:37;;;;;;;63.10;51.80;;;;;;;9.60;100.00;99970.06;5031300;28;20454;-48
2023/03/31 02:05:10;;;;;;;59.73;53.47;;;;;;;9.61;100.00;99971.72;5035014;28;20501;-45
2023/03/31 02:07:43;;;;;;;58.80;52.43;;;;;;;9.63;100.00;99960.84;5035514;28;20988;-43
2023/03/31 02:10:13;;;;;;;59.83;50.67;;;;;;;9.62;100.00;99969.84;5035428;28;20436;-45
2023/03/31 02:12:44;;;;;;;57.50;51.80;;;;;;;9.60;100.00;99964.75;5035450;28;20759;-46
2023/03/31 02:15:18;;;;;;;58.53;52.47;;;;;;;9.60;100.00;99958.59;5035092;28;20428;-44
2023/03/31 02:17:49;;;;;;;57.80;52.30;;;;;;;9.61;100.00;99963.72;5035478;28;20432;-49
2023/03/31 02:20:20;;;;;;;65.53;51.83;;;;;;;9.59;100.00;99951.66;5035255;28;20475;-52
2023/03/31 02:22:52;;;;;;;58.10;51.73;;;;;;;9.60;100.00;99953.28;5035428;28;20882;-51
2023/03/31 02:25:23;;;;;;;74.20;53.67;;;;;;;9.59;100.00;99951.66;5034654;28;20992;-44
2023/03/31 02:27:56;;;;;;;60.50;53.70;;;;;;;9.59;100.00;99949.00;5035291;28;20439;-46
2023/03/31 02:30:29;;;;;;;62.80;53.13;;;;;;;9.58;100.00;99950.00;5023127;28;20452;-45
2023/03/31 02:32:58;;;;;;;70.63;54.33;;;;;;;9.58;100.00;99945.50;5012728;28;20429;-47
2023/03/31 02:35:26;;;;;;;58.93;52.70;;;;;;;9.60;100.00;99946.09;5014997;28;20540;-44
2023/03/31 02:37:54;;;;;;;80.10;53.10;;;;;;;9.59;100.00;99935.69;5015466;28;20461;-46
2023/03/31 02:40:26;;;;;;;57.93;52.20;;;;;;;9.62;100.00;99935.25;5015288;28;20477;-45
2023/03/31 02:42:55;;;;;;;57.40;52.00;;;;;;;9.59;100.00;99936.47;5014964;28;20528;-46
2023/03/31 02:45:44;;;;;;;55.83;50.53;;;;;;;9.61;100.00;99938.94;5014466;28;20459;-45
2023/03/31 02:48:18;;;;;;;58.40;52.73;;;;;;;9.60;100.00;99929.31;5015240;28;20915;-44
2023/03/31 02:51:02;;;;;;;57.97;51.67;;;;;;;9.55;100.00;99931.78;5015099;28;20425;-44
2023/03/31 02:53:43;;;;;;;66.40;52.87;;;;;;;9.56;100.00;99926.25;5014805;28;20436;-45
2023/03/31 02:56:26;;;;;;;59.30;52.57;;;;;;;9.51;100.00;99934.06;5014495;28;20552;-45
2023/03/31 02:59:12;;;;;;;55.97;50.17;;;;;;;9.53;100.00;99921.34;5014739;28;20433;-44
2023/03/31 03:01:51;;;;;;;55.07;48.97;;;;;;;9.51;100.00;99910.09;5014599;28;20479;-44
2023/03/31 03:04:36;;;;;;;53.37;48.53;;;;;;;9.51;100.00;99910.09;5014702;28;20448;-44
2023/03/31 03:07:13;;;;;;;55.07;49.70;;;;;;;9.53;100.00;99910.69;5014201;28;20543;-46
2023/03/31 03:09:51;;;;;;;61.90;50.10;;;;;;;9.53;100.00;99909.91;5014634;28;20459;-44
2023/03/31 03:12:25;;;;;;;54.17;48.33;;;;;;;9.54;100.00;99904.34;5014364;28;20439;-45
2023/03/31 03:15:00;;;;;;;55.80;49.70;;;;;;;9.54;100.00;99900.88;5015303;28;20442;-44
2023/03/31 03:17:33;;;;;;;59.53;48.70;;;;;;;9.55;100.00;99900.69;5025957;28;20451;-47
2023/03/31 03:20:06;;;;;;;55.10;49.20;;;;;;;9.52;100.00;99895.78;5034173;28;20483;-47
2023/03/31 03:22:35;;;;;;;54.53;48.90;;;;;;;9.50;100.00;99897.03;5033918;28;20432;-44
2023/03/31 03:25:03;;;;;;;59.80;47.50;;;;;;;9.48;100.00;99893.72;5033541;28;20436;-44
2023/03/31 03:27:31;;;;;;;58.30;47.77;;;;;;;9.49;100.00;99887.38;5034160;28;20819;-44
2023/03/31 03:30:01;;;;;;;58.27;50.53;;;;;;;9.49;100.00;99888.22;5034266;28;20832;-47
2023/03/31 03:32:29;;;;;;;60.90;50.13;;;;;;;9.51;100.00;99893.31;5033812;28;20931;-44
2023/03/31 03:34:56;;;;;;;62.60;51.00;;;;;;;9.50;100.00;99878.38;5033492;28;20455;-44
2023/03/31 03:37:24;;;;;;;63.47;49.70;;;;;;;9.49;100.00;99877.56;5033492;28;20451;-45
2023/03/31 03:39:52;;;;;;;61.90;46.60;;;;;;;9.49;100.00;99869.59;5033482;28;20439;-45
2023/03/31 03:42:20;;;;;;;53.67;48.30;;;;;;;9.50;100.00;99876.53;5033144;28;20432;-46
2023/03/31 03:44:47;;;;;;;59.63;49.57;;;;;;;9.52;100.00;99868.34;5033898;28;20444;-44
2023/03/31 03:47:16;;;;;;;54.57;46.70;;;;;;;9.49;100.00;99866.09;5033268;28;20480;-43
2023/03/31 03:49:44;;;;;;;52.47;47.30;;;;;;;9.48;100.00;99859.97;5033755;28;20798;-51
2023/03/31 03:52:11;;;;;;;51.63;46.00;;;;;;;9.51;100.00;99866.69;5031752;28;20436;-44
2023/03/31 03:54:39;;;;;;;50.53;45.87;;;;;;;9.53;100.00;99856.69;5033175;28;20443;-44
2023/03/31 03:57:07;;;;;;;50.83;46.23;;;;;;;9.53;100.00;99856.69;5033077;28;20471;-44
2023/03/31 03:59:35;;;;;;;50.23;45.87;;;;;;;9.53;100.00;99860.13;5033583;28;20463;-45
2023/03/31 04:02:02;;;;;;;52.27;46.70;;;;;;;9.51;100.00;99859.53;5033241;28;20468;-44
2023/03/31 04:04:31;;;;;;;53.57;46.17;;;;;;;9.52;100.00;99853.19;5033298;28;20502;-44
2023/03/31 04:06:59;;;;;;;51.50;46.30;;;;;;;9.54;100.00;99847.66;5032665;28;20880;-44
2023/03/31 04:09:27;;;;;;;53.60;47.60;;;;;;;9.52;100.00;99844.38;5033324;28;20436;-46
2023/03/31 04:11:55;;;;;;;51.43;46.30;;;;;;;9.51;100.00;99838.25;5033070;28;20428;-45
2023/03/31 04:14:24;;;;;;;61.13;50.13;;;;;;;9.54;100.00;99829.84;5033230;28;20436;-44
2023/03/31 04:16:55;;;;;;;51.20;46.80;;;;;;;9.53;100.00;99838.84;5032656;28;20463;-47
2023/03/31 04:19:24;;;;;;;61.73;48.43;;;;;;;9.55;100.00;99828.00;5026359;28;20441;-45
2023/03/31 04:21:57;;;;;;;53.07;47.53;;;;;;;9.54;100.00;99827.19;5015471;28;20499;-44
2023/03/31 04:24:29;;;;;;;53.30;48.20;;;;;;;9.55;100.00;99822.66;5028470;28;20436;-47
2023/03/31 04:26:57;;;;;;;51.50;46.50;;;;;;;9.56;100.00;99817.13;5031847;28;20464;-47
2023/03/31 04:29:26;;;;;;;52.73;47.17;;;;;;;9.57;100.00;99823.28;5032997;28;20432;-45
2023/03/31 04:31:57;;;;;;;54.03;48.13;;;;;;;9.54;100.00;99816.53;5032909;28;20801;-46
2023/03/31 04:34:33;;;;;;;56.07;50.23;;;;;;;9.54;100.00;99810.38;5032970;28;20507;-46
2023/03/31 04:37:03;;;;;;;64.33;48.83;;;;;;;9.55;100.00;99812.03;5032257;28;20464;-46
2023/03/31 04:39:31;;;;;;;52.03;47.37;;;;;;;9.52;100.00;99812.44;5032826;28;20428;-45
2023/03/31 04:42:00;;;;;;;51.97;46.40;;;;;;;9.55;100.00;99793.41;5032356;28;20467;-44
2023/03/31 04:44:28;;;;;;;63.50;48.17;;;;;;;9.58;100.00;99798.28;5032877;28;20523;-45
2023/03/31 04:46:57;;;;;;;54.13;48.17;;;;;;;9.54;100.00;99794.41;5032176;28;20460;-44
2023/03/31 04:49:25;;;;;;;54.17;48.87;;;;;;;9.54;100.00;99786.44;5032832;28;20436;-46
2023/03/31 04:51:52;;;;;;;54.60;49.60;;;;;;;9.51;100.00;99781.53;5032349;28;20428;-44
2023/03/31 04:54:22;;;;;;;55.40;49.70;;;;;;;9.55;100.00;99772.09;5032506;28;20433;-45
2023/03/31 04:56:49;;;;;;;51.83;47.90;;;;;;;9.59;100.00;99768.78;5031882;28;20472;-50
2023/03/31 04:59:17;;;;;;;54.37;48.60;;;;;;;9.62;100.00;99773.69;5032570;28;20463;-46
2023/03/31 05:01:45;;;;;;;59.33;48.73;;;;;;;9.62;100.00;99773.69;5031960;28;20498;-44
2023/03/31 05:04:12;;;;;;;55.67;50.37;;;;;;;9.63;100.00;99775.31;5032193;28;20494;-45
2023/03/31 05:06:40;;;;;;;54.97;47.90;;;;;;;9.61;100.00;99772.06;5031726;28;20460;-45
2023/03/31 05:09:08;;;;;;;60.40;51.10;;;;;;;9.60;100.00;99774.94;5032037;28;20436;-47
2023/03/31 05:11:37;;;;;;;51.70;46.37;;;;;;;9.58;100.00;99761.84;5032124;28;20435;-44
2023/03/31 05:14:05;;;;;;;54.43;48.53;;;;;;;9.61;100.00;99765.94;5032304;28;20519;-46
2023/03/31 05:16:33;;;;;;;53.50;48.17;;;;;;;9.58;100.00;99761.03;5031636;28;21100;-44
2023/03/31 05:19:01;;;;;;;52.27;47.30;;;;;;;9.58;100.00;99766.34;5032132;28;20468;-46
2023/03/31 05:21:30;;;;;;;53.80;48.13;;;;;;;9.57;100.00;99764.72;5031574;28;20478;-47
2023/03/31 05:23:58;;;;;;;53.73;48.07;;;;;;;9.58;100.00;99763.69;5031900;28;20432;-47
2023/03/31 05:26:26;;;;;;;51.17;46.80;;;;;;;9.59;100.00;99763.47;5031560;28;20468;-44
2023/03/31 05:28:55;;;;;;;52.67;47.30;;;;;;;9.61;100.00;99755.28;5031986;28;20918;-44
2023/03/31 05:31:23;;;;;;;51.87;47.40;;;;;;;9.61;100.00;99748.13;5031911;28;20428;-49
2023/03/31 05:33:51;;;;;;;51.10;46.03;;;;;;;9.63;100.00;99745.22;5031856;28;20450;-44
2023/03/31 05:36:18;;;;;;;49.87;45.30;;;;;;;9.62;100.00;99739.06;5031268;28;20518;-47
2023/03/31 05:38:46;;;;;;;51.43;46.37;;;;;;;9.64;100.00;99744.22;5030924;28;20980;-47
2023/03/31 05:41:15;;;;;;;52.10;47.03;;;;;;;9.66;100.00;99739.47;5031811;28;20471;-45
2023/03/31 05:43:43;;;;;;;52.33;47.37;;;;;;;9.68;100.00;99732.06;5031666;28;20795;-44
2023/03/31 05:46:12;;;;;;;62.70;48.10;;;;;;;9.67;100.00;99728.63;5031285;28;20893;-46
2023/03/31 05:48:41;;;;;;;49.80;44.70;;;;;;;9.69;100.00;99731.06;5031589;28;20432;-47
2023/03/31 05:51:09;;;;;;;51.07;46.53;;;;;;;9.69;100.00;99731.88;5031857;28;20798;-44
2023/03/31 05:53:36;;;;;;;50.90;46.63;;;;;;;9.70;100.00;99730.84;5031650;28;20461;-45
2023/03/31 05:56:06;;;;;;;53.90;48.77;;;;;;;9.72;100.00;99733.28;5031141;28;20464;-44
2023/03/31 05:58:35;;;;;;;50.83;46.60;;;;;;;9.73;100.00;99729.59;5031677;28;20432;-43
2023/03/31 06:01:05;;;;;;;51.03;46.63;;;;;;;9.75;100.00;99728.34;5031488;28;20420;-47
2023/03/31 06:03:36;;;;;;;51.40;46.37;;;;;;;9.79;100.00;99723.41;5031261;28;20447;-47
2023/03/31 06:06:06;;;;;;;51.00;45.70;;;;;;;9.81;100.00;99719.50;5031212;28;20483;-44
2023/03/31 06:08:35;;;;;;;48.83;44.17;;;;;;;9.88;100.00;99719.47;5031703;28;20805;-49
2023/03/31 06:11:04;;;;;;;49.43;45.17;;;;;;;9.91;100.00;99716.38;5031550;28;20850;-47
2023/03/31 06:13:33;;;;;;;48.63;44.37;;;;;;;9.94;100.00;99716.75;5031411;28;20775;-45
2023/03/31 06:16:01;;;;;;;50.93;45.83;;;;;;;9.98;100.00;99709.94;5030664;28;20471;-49
2023/03/31 06:18:30;;;;;;;50.73;45.87;;;;;;;10.02;100.00;99713.81;5031583;28;20463;-47
2023/03/31 06:21:00;;;;;;;49.53;45.03;;;;;;;10.06;100.00;99710.72;5031443;28;20554;-45
2023/03/31 06:23:28;;;;;;;50.60;45.37;;;;;;;10.08;100.00;99712.13;5031118;28;20476;-47
2023/03/31 06:26:00;;;;;;;49.87;45.60;;;;;;;10.11;100.00;99706.34;5030956;28;20472;-50
2023/03/31 06:28:28;;;;;;;50.47;45.83;;;;;;;10.18;100.00;99704.50;5031192;28;20498;-44
2023/03/31 06:31:01;;;;;;;50.53;46.20;;;;;;;10.25;100.00;99713.22;5031491;28;20482;-44
2023/03/31 06:33:28;;;;;;;52.20;46.53;;;;;;;10.32;100.00;99705.97;5031170;28;20428;-47
2023/03/31 06:35:58;;;;;;;50.33;45.40;;;;;;;10.39;100.00;99705.94;5030792;28;20475;-45
2023/03/31 06:38:27;;;;;;;51.17;46.57;;;;;;;10.47;100.00;99701.13;5031274;28;20444;-47
2023/03/31 06:40:55;;;;;;;51.30;46.60;;;;;;;10.53;100.00;99704.75;5031003;28;20435;-45
2023/03/31 06:43:23;;;;;;;48.93;44.90;;;;;;;10.55;100.00;99700.81;5031086;28;20471;-47
2023/03/31 06:45:52;;;;;;;52.40;47.73;;;;;;;10.61;100.00;99698.28;5030710;28;20925;-45
2023/03/31 06:48:22;;;;;;;51.37;46.40;;;;;;;10.65;100.00;99694.16;5031443;28;20432;-45
2023/03/31 06:50:49;;;;;;;50.40;45.53;;;;;;;10.66;100.00;99701.13;5034132;28;20436;-44
2023/03/31 06:53:17;;;;;;;50.57;46.10;;;;;;;10.65;100.00;99697.66;5034394;28;20432;-46
2023/03/31 06:55:46;;;;;;;50.07;46.10;;;;;;;10.65;100.00;99704.81;5033982;28;20970;-46
2023/03/31 06:58:14;;;;;;;50.10;45.20;;;;;;;10.55;100.00;99698.16;5034821;28;20436;-44
2023/03/31 07:00:44;;;;;;;49.23;44.73;;;;;;;10.52;100.00;99693.25;5034746;28;20432;-48
2023/03/31 07:03:13;;;;;;;51.13;46.60;;;;;;;10.48;100.00;99689.41;5034303;28;20471;-44
2023/03/31 07:05:41;;;;;;;48.83;44.87;;;;;;;10.48;100.00;99696.59;5034024;28;20462;-47
2023/03/31 07:08:09;;;;;;;49.40;45.33;;;;;;;10.46;100.00;99691.47;5034726;28;20872;-44
2023/03/31 07:10:37;;;;;;;49.03;45.30;;;;;;;10.47;100.00;99690.47;5034363;28;20438;-45
2023/03/31 07:13:06;;;;;;;51.40;46.80;;;;;;;10.45;100.00;99689.06;5034251;28;20439;-46
2023/03/31 07:15:33;;;;;;;49.53;45.30;;;;;;;10.52;100.00;99690.59;5033477;28;20996;-46
2023/03/31 07:18:01;;;;;;;50.43;46.43;;;;;;;10.58;100.00;99688.91;5034283;28;20433;-44
2023/03/31 07:20:31;;;;;;;51.93;47.43;;;;;;;10.59;100.00;99687.06;5034122;28;20436;-45
2023/03/31 07:22:59;;;;;;;51.67;47.17;;;;;;;10.62;100.00;99692.75;5034020;28;20575;-46
2023/03/31 07:25:26;;;;;;;50.53;46.33;;;;;;;10.65;100.00;99689.66;5033622;28;20460;-46
2023/03/31 07:27:54;;;;;;;52.73;48.27;;;;;;;10.64;100.00;99690.69;5033949;28;20930;-44
2023/03/31 07:30:23;;;;;;;51.90;47.97;;;;;;;10.68;100.00;99688.38;5033986;28;20447;-45
2023/03/31 07:32:53;;;;;;;51.57;46.97;;;;;;;10.72;100.00;99689.56;5033604;28;20435;-44
2023/03/31 07:35:22;;;;;;;48.83;45.33;;;;;;;10.77;100.00;99687.88;5030757;28;21051;-45
2023/03/31 07:37:51;;;;;;;51.93;47.13;;;;;;;10.81;100.00;99685.56;5034039;28;20456;-44
2023/03/31 07:40:22;;;;;;;51.10;47.30;;;;;;;10.86;100.00;99683.88;5033890;28;20443;-44
2023/03/31 07:42:50;;;;;;;51.50;47.30;;;;;;;10.94;100.00;99675.53;5033528;28;20472;-44
2023/03/31 07:45:20;;;;;;;50.93;47.50;;;;;;;11.03;100.00;99673.38;5033119;28;20486;-44
2023/03/31 07:47:49;;;;;;;52.40;48.87;;;;;;;11.10;100.00;99666.13;5033985;28;20517;-48
2023/03/31 07:50:18;;;;;;;53.93;49.47;;;;;;;11.14;100.00;99677.94;5033649;28;20440;-45
2023/03/31 07:52:46;;;;;;;52.27;48.57;;;;;;;11.20;100.00;99674.38;5033482;28;20933;-44
2023/03/31 07:55:15;;;;;;;54.43;50.00;;;;;;;11.24;100.00;99672.88;5033276;28;20574;-48
2023/03/31 07:57:44;;;;;;;53.80;49.13;;;;;;;11.31;100.00;99664.78;5033599;28;20528;-48
2023/03/31 08:00:14;;;;;;;53.53;48.57;;;;;;;11.38;100.00;99660.97;5033139;28;20511;-46
2023/03/31 08:02:43;;;;;;;53.70;50.00;;;;;;;11.46;100.00;99658.00;5032996;28;20482;-46
2023/03/31 08:05:14;;;;;;;52.77;49.20;;;;;;;11.53;100.00;99658.69;5032957;28;20448;-44
2023/03/31 08:07:44;;;;;;;54.90;50.60;;;;;;;11.62;100.00;99656.50;5033435;28;20531;-47
2023/03/31 08:10:15;;;;;;;54.80;50.43;;;;;;;11.71;100.00;99651.69;5033342;28;20421;-50
2023/03/31 08:12:42;;;;;;;53.70;49.50;;;;;;;11.75;100.00;99651.00;5032962;28;20431;-48
2023/03/31 08:15:11;;;;;;;54.30;50.30;;;;;;;11.86;100.00;99647.50;5033009;28;20854;-45
2023/03/31 08:17:39;;;;;;;54.83;50.67;;;;;;;11.95;100.00;99646.13;5033202;28;21196;-45
2023/03/31 08:20:09;;;;;;;53.50;49.47;;;;;;;12.06;100.00;99642.66;5033247;28;20439;-46
2023/03/31 08:22:40;;;;;;;55.77;51.00;;;;;;;12.14;100.00;99633.47;5032763;28;20524;-47
2023/03/31 08:25:09;;;;;;;53.27;49.17;;;;;;;12.16;100.00;99634.03;5032588;28;20873;-47
2023/03/31 08:27:38;;;;;;;53.53;48.97;;;;;;;12.17;100.00;99635.69;5032928;28;20966;-46
2023/03/31 08:30:08;;;;;;;60.17;55.77;;;;;;;12.18;100.00;99627.41;5033013;28;20482;-46
2023/03/31 08:32:37;;;;;;;54.17;50.10;;;;;;;12.16;100.00;99629.50;5032677;28;20964;-46
2023/03/31 08:35:06;;;;;;;54.20;49.87;;;;;;;12.03;100.00;99620.94;5032408;28;20443;-51
2023/03/31 08:37:33;;;;;;;54.73;50.30;;;;;;;12.02;100.00;99621.97;5032538;28;20539;-47
2023/03/31 08:40:04;;;;;;;52.50;47.80;;;;;;;11.99;100.00;99619.75;5032893;28;20746;-45
2023/03/31 08:42:38;;;;;;;52.43;49.17;;;;;;;11.97;100.00;99619.19;5032561;28;20420;-44
2023/03/31 08:45:15;;;;;;;54.57;50.37;;;;;;;12.05;100.00;99614.31;5032187;28;20435;-44
2023/03/31 08:47:45;;;;;;;54.40;49.70;;;;;;;12.05;100.00;99613.50;5032629;28;20425;-45
2023/03/31 08:50:16;;;;;;;52.93;48.97;;;;;;;12.11;100.00;99604.53;5032712;28;20452;-45
2023/03/31 08:52:50;;;;;;;52.83;48.80;;;;;;;12.20;100.00;99608.47;5032542;28;20424;-44
2023/03/31 08:55:25;;;;;;;55.60;50.20;;;;;;;12.31;100.00;99598.81;5032202;28;20454;-46
2023/03/31 08:57:59;;;;;;;53.80;49.50;;;;;;;12.39;100.00;99599.28;5032521;28;20458;-44
2023/03/31 09:00:40;;;;;;;54.40;50.13;;;;;;;12.56;100.00;99591.31;5032237;28;20435;-46
2023/03/31 09:03:15;;;;;;;53.53;49.57;;;;;;;12.77;100.00;99590.66;5032171;28;20829;-45
2023/03/31 09:05:51;;;;;;;52.27;47.93;;;;;;;12.95;100.00;99587.00;5031855;28;20551;-47
2023/03/31 09:08:36;;;;;;;52.47;48.60;;;;;;;13.19;100.00;99577.81;5032333;28;20428;-44
2023/03/31 09:11:13;;;;;;;53.70;49.50;;;;;;;13.36;100.00;99584.00;5032398;28;20802;-44
2023/03/31 09:14:05;;;;;;;52.17;48.50;;;;;;;13.46;100.00;99576.16;5031959;28;20427;-46
2023/03/31 09:16:38;;;;;;;53.27;49.67;;;;;;;13.64;100.00;99575.09;5031507;28;20475;-45
2023/03/31 09:19:14;;;;;;;54.73;50.27;;;;;;;13.68;100.00;99571.66;5031968;28;20477;-45
2023/03/31 09:21:44;;;;;;;54.70;50.40;;;;;;;13.66;100.00;99563.06;5031870;28;20440;-45
2023/03/31 09:24:18;;;;;;;54.93;50.83;;;;;;;13.68;100.00;99565.47;5032136;28;20478;-45
2023/03/31 09:26:52;;;;;;;54.03;50.13;;;;;;;13.76;100.00;99560.53;5031647;28;20973;-45
2023/03/31 09:29:28;;;;;;;54.40;49.40;;;;;;;13.77;100.00;99561.34;5031890;28;20467;-47
2023/03/31 09:32:01;;;;;;;54.00;49.20;;;;;;;13.76;100.00;99557.88;5031709;28;20439;-47
2023/03/31 09:34:32;;;;;;;53.17;48.90;;;;;;;13.91;100.00;99557.28;5032296;28;20523;-44
2023/03/31 09:37:00;;;;;;;53.50;49.07;;;;;;;14.14;100.00;99557.03;5029778;28;20460;-48
2023/03/31 09:39:27;;;;;;;53.97;49.77;;;;;;;14.29;100.00;99553.75;5031747;28;20996;-43
2023/03/31 09:41:56;;;;;;;55.47;50.77;;;;;;;14.33;100.00;99539.63;5031471;28;20438;-47
2023/03/31 09:44:36;;;;;;;54.60;50.17;;;;;;;14.21;100.00;99538.09;5031583;28;20486;-44
2023/03/31 09:47:07;;;;;;;51.87;48.23;;;;;;;14.15;100.00;99534.56;5031064;28;21013;-48
2023/03/31 09:49:40;;;;;;;52.60;49.27;;;;;;;14.04;100.00;99532.78;5031644;28;20985;-46
2023/03/31 09:52:29;;;;;;;53.67;49.33;;;;;;;13.94;100.00;99532.66;5031463;28;20482;-44
2023/03/31 09:55:00;;;;;;;53.07;49.27;;;;;;;13.85;100.00;99529.59;5031632;28;20423;-45
2023/03/31 09:57:32;;;;;;;53.50;49.60;;;;;;;13.80;100.00;99528.69;5031590;28;20539;-46
2023/03/31 10:00:13;;;;;;;54.03;49.60;;;;;;;13.69;100.00;99530.41;5031722;28;20420;-46
2023/03/31 10:02:44;;;;;;;51.07;47.77;;;;;;;13.65;100.00;99523.94;5031327;28;20498;-46
2023/03/31 10:05:30;;;;;;;53.27;49.17;;;;;;;13.74;100.00;99527.81;5030961;28;20567;-46
2023/03/31 10:08:20;;;;;;;50.77;47.47;;;;;;;13.80;100.00;99526.00;5031586;28;20493;-47
2023/03/31 10:10:50;;;;;;;52.07;48.00;;;;;;;13.90;100.00;99525.34;5031554;28;20637;-46
2023/03/31 10:13:22;;;;;;;54.87;49.77;;;;;;;13.97;100.00;99524.13;5031501;28;20420;-48
2023/03/31 10:15:53;;;;;;;50.67;47.07;;;;;;;14.11;100.00;99520.00;5031026;28;20468;-48
2023/03/31 10:18:31;;;;;;;51.87;48.20;;;;;;;14.29;100.00;99516.19;5031435;28;20429;-48
2023/03/31 10:21:00;;;;;;;49.33;46.20;;;;;;;14.45;100.00;99507.31;5031177;28;20941;-46
2023/03/31 10:23:31;;;;;;;49.70;45.83;;;;;;;14.56;100.00;99508.22;5031169;28;20424;-46
2023/03/31 10:26:00;;;;;;;47.40;44.20;;;;;;;14.78;100.00;99504.41;5034337;28;20464;-45
2023/03/31 10:28:32;;;;;;;49.60;45.73;;;;;;;14.99;100.00;99500.09;5035363;28;20542;-49
2023/03/31 10:31:01;;;;;;;43.90;41.10;;;;;;;15.08;100.00;99501.22;5035409;28;20434;-45
2023/03/31 10:33:33;;;;;;;46.47;42.90;;;;;;;15.13;100.00;99498.59;5034972;28;20862;-48
2023/03/31 10:36:07;;;;;;;46.47;42.63;;;;;;;14.96;100.00;99496.00;5034712;28;20586;-45
2023/03/31 10:38:38;;;;;;;45.93;43.27;;;;;;;14.75;100.00;99494.22;5035277;28;20432;-43
2023/03/31 10:41:06;;;;;;;45.77;42.07;;;;;;;14.59;100.00;99502.34;5034953;28;20945;-45
2023/03/31 10:43:40;;;;;;;44.37;41.90;;;;;;;14.56;100.00;99501.00;5034639;28;20518;-43
2023/03/31 10:46:09;;;;;;;45.90;42.90;;;;;;;14.67;100.00;99483.09;5034491;28;20464;-43
2023/03/31 10:48:40;;;;;;;44.37;41.00;;;;;;;14.77;100.00;99484.03;5034720;28;20458;-45
2023/03/31 10:51:14;;;;;;;46.57;42.90;;;;;;;14.76;100.00;99482.41;5034971;28;20436;-44
2023/03/31 10:53:43;;;;;;;46.80;43.60;;;;;;;14.64;100.00;99476.38;5034681;28;20530;-48
2023/03/31 10:56:35;;;;;;;49.23;45.17;;;;;;;14.57;100.00;99481.16;5034191;28;20472;-45
2023/03/31 10:59:29;;;;;;;46.03;42.93;;;;;;;14.50;100.00;99477.84;5034518;28;20519;-47
2023/03/31 11:02:22;;;;;;;46.07;42.90;;;;;;;14.43;100.00;99477.22;5034493;28;20442;-44
2023/03/31 11:05:05;;;;;;;47.47;43.60;;;;;;;14.39;100.00;99478.81;5034510;28;20471;-43
2023/03/31 11:07:48;;;;;;;46.57;43.43;;;;;;;14.22;100.00;99470.00;5034196;28;20467;-45
2023/03/31 11:10:37;;;;;;;46.87;43.67;;;;;;;14.32;100.00;99472.78;5034643;28;20867;-44
2023/03/31 11:13:11;;;;;;;43.73;40.90;;;;;;;14.46;100.00;99471.38;5034052;28;20432;-46
2023/03/31 11:15:50;;;;;;;46.30;43.23;;;;;;;14.52;100.00;99464.19;5033778;28;20903;-43
2023/03/31 11:18:36;;;;;;;46.17;43.37;;;;;;;14.58;100.00;99472.03;5034658;28;20436;-46
2023/03/31 11:21:16;;;;;;;47.53;44.43;;;;;;;14.58;100.00;99473.91;5034452;28;20475;-42
2023/03/31 11:23:50;;;;;;;42.37;39.80;;;;;;;14.24;100.00;99467.88;5034171;28;20427;-46
2023/03/31 11:26:26;;;;;;;42.77;40.57;;;;;;;13.89;100.00;99465.56;5033572;28;20551;-43
2023/03/31 11:29:15;;;;;;;42.73;40.47;;;;;;;13.62;100.00;99475.41;5034347;28;20844;-44
2023/03/31 11:31:51;;;;;;;43.43;40.73;;;;;;;13.51;100.00;99478.97;5033989;28;20432;-43
2023/03/31 11:34:47;;;;;;;41.43;39.33;;;;;;;13.40;100.00;99470.00;5033977;28;20424;-43